sensor_id;sensor_type;location;lat;lon;timestamp;P1;durP1;ratioP1;P2;durP2;ratioP2
249;SDS011;109;19.806;-70.704;2023-03-23T00:01:15;23.33;;;5.33;;
249;SDS011;109;19.806;-70.704;2023-03-23T00:03:46;18.33;;;4.63;;
249;SDS011;109;19.806;-70.704;2023-03-23T00:06:15;24.70;;;5.17;;
249;SDS011;109;19.806;-70.704;2023-03-23T00:08:44;22.60;;;4.10;;
249;SDS011;109;19.806;-70.704;2023-03-23T00:11:19;34.53;;;5.13;;
249;SDS011;109;19.806;-70.704;2023-03-23T00:13:48;24.83;;;5.00;;
249;SDS011;109;19.806;-70.704;2023-03-23T00:16:25;14.63;;;3.77;;
249;SDS011;109;19.806;-70.704;2023-03-23T00:19:04;27.63;;;4.37;;
249;SDS011;109;19.806;-70.704;2023-03-23T00:21:33;25.10;;;4.60;;
249;SDS011;109;19.806;-70.704;2023-03-23T00:24:15;20.53;;;4.10;;
249;SDS011;109;19.806;-70.704;2023-03-23T00:26:48;27.97;;;4.30;;
249;SDS011;109;19.806;-70.704;2023-03-23T00:29:21;25.60;;;4.40;;
249;SDS011;109;19.806;-70.704;2023-03-23T00:32:02;21.80;;;5.20;;
249;SDS011;109;19.806;-70.704;2023-03-23T00:34:34;22.50;;;4.70;;
249;SDS011;109;19.806;-70.704;2023-03-23T00:37:01;25.60;;;4.70;;
249;SDS011;109;19.806;-70.704;2023-03-23T00:39:34;13.30;;;3.73;;
249;SDS011;109;19.806;-70.704;2023-03-23T00:42:02;18.53;;;4.50;;
249;SDS011;109;19.806;-70.704;2023-03-23T00:44:36;19.00;;;5.03;;
249;SDS011;109;19.806;-70.704;2023-03-23T00:47:02;20.47;;;5.70;;
249;SDS011;109;19.806;-70.704;2023-03-23T00:49:37;17.63;;;4.57;;
249;SDS011;109;19.806;-70.704;2023-03-23T00:52:04;24.27;;;4.20;;
249;SDS011;109;19.806;-70.704;2023-03-23T00:54:39;20.03;;;4.43;;
249;SDS011;109;19.806;-70.704;2023-03-23T00:57:05;20.20;;;5.10;;
249;SDS011;109;19.806;-70.704;2023-03-23T00:59:39;22.83;;;4.63;;
249;SDS011;109;19.806;-70.704;2023-03-23T01:02:07;14.57;;;4.07;;
249;SDS011;109;19.806;-70.704;2023-03-23T01:04:40;22.77;;;5.40;;
249;SDS011;109;19.806;-70.704;2023-03-23T01:07:16;30.57;;;5.47;;
249;SDS011;109;19.806;-70.704;2023-03-23T01:09:55;16.67;;;4.63;;
249;SDS011;109;19.806;-70.704;2023-03-23T01:12:23;20.90;;;4.77;;
249;SDS011;109;19.806;-70.704;2023-03-23T01:14:57;25.90;;;4.90;;
249;SDS011;109;19.806;-70.704;2023-03-23T01:17:23;20.60;;;4.23;;
249;SDS011;109;19.806;-70.704;2023-03-23T01:19:57;17.37;;;4.50;;
249;SDS011;109;19.806;-70.704;2023-03-23T01:22:23;18.40;;;5.17;;
249;SDS011;109;19.806;-70.704;2023-03-23T01:25:05;18.33;;;5.20;;
249;SDS011;109;19.806;-70.704;2023-03-23T01:27:39;23.63;;;5.90;;
249;SDS011;109;19.806;-70.704;2023-03-23T01:30:06;21.73;;;4.77;;
249;SDS011;109;19.806;-70.704;2023-03-23T01:32:43;18.33;;;5.33;;
249;SDS011;109;19.806;-70.704;2023-03-23T01:35:24;14.13;;;4.80;;
249;SDS011;109;19.806;-70.704;2023-03-23T01:37:51;20.47;;;5.00;;
249;SDS011;109;19.806;-70.704;2023-03-23T01:40:26;21.43;;;5.30;;
249;SDS011;109;19.806;-70.704;2023-03-23T01:42:54;18.70;;;4.60;;
249;SDS011;109;19.806;-70.704;2023-03-23T01:45:29;15.57;;;5.23;;
249;SDS011;109;19.806;-70.704;2023-03-23T01:53:33;14.50;;;5.20;;
249;SDS011;109;19.806;-70.704;2023-03-23T01:56:11;15.93;;;5.10;;
249;SDS011;109;19.806;-70.704;2023-03-23T01:58:39;18.23;;;5.77;;
249;SDS011;109;19.806;-70.704;2023-03-23T02:01:14;27.43;;;6.67;;
249;SDS011;109;19.806;-70.704;2023-03-23T02:03:43;20.90;;;5.53;;
249;SDS011;109;19.806;-70.704;2023-03-23T02:06:17;12.37;;;4.50;;
249;SDS011;109;19.806;-70.704;2023-03-23T02:09:22;23.33;;;5.20;;
249;SDS011;109;19.806;-70.704;2023-03-23T02:11:56;20.67;;;4.43;;
249;SDS011;109;19.806;-70.704;2023-03-23T02:14:23;15.83;;;4.57;;
249;SDS011;109;19.806;-70.704;2023-03-23T02:17:04;26.27;;;5.67;;
249;SDS011;109;19.806;-70.704;2023-03-23T02:28:31;20.63;;;5.07;;
249;SDS011;109;19.806;-70.704;2023-03-23T02:31:35;13.17;;;4.50;;
249;SDS011;109;19.806;-70.704;2023-03-23T02:34:35;23.13;;;4.93;;
249;SDS011;109;19.806;-70.704;2023-03-23T02:37:19;17.10;;;3.90;;
249;SDS011;109;19.806;-70.704;2023-03-23T02:40:25;20.97;;;4.80;;
249;SDS011;109;19.806;-70.704;2023-03-23T02:43:01;15.40;;;4.47;;
249;SDS011;109;19.806;-70.704;2023-03-23T02:45:29;12.60;;;4.30;;
249;SDS011;109;19.806;-70.704;2023-03-23T02:48:07;12.00;;;4.33;;
249;SDS011;109;19.806;-70.704;2023-03-23T02:50:35;19.10;;;4.43;;
249;SDS011;109;19.806;-70.704;2023-03-23T02:53:12;23.90;;;4.90;;
249;SDS011;109;19.806;-70.704;2023-03-23T02:55:41;14.13;;;4.00;;
249;SDS011;109;19.806;-70.704;2023-03-23T02:58:19;14.00;;;4.10;;
249;SDS011;109;19.806;-70.704;2023-03-23T03:00:46;25.90;;;3.70;;
249;SDS011;109;19.806;-70.704;2023-03-23T03:03:23;13.03;;;4.60;;
249;SDS011;109;19.806;-70.704;2023-03-23T03:11:17;18.17;;;4.43;;
249;SDS011;109;19.806;-70.704;2023-03-23T03:16:44;13.30;;;3.73;;
249;SDS011;109;19.806;-70.704;2023-03-23T03:19:33;19.17;;;4.50;;
249;SDS011;109;19.806;-70.704;2023-03-23T03:22:10;12.43;;;3.97;;
249;SDS011;109;19.806;-70.704;2023-03-23T03:24:40;21.80;;;4.17;;
249;SDS011;109;19.806;-70.704;2023-03-23T03:27:16;21.10;;;3.97;;
249;SDS011;109;19.806;-70.704;2023-03-23T03:30:04;16.20;;;3.80;;
249;SDS011;109;19.806;-70.704;2023-03-23T03:32:57;21.70;;;3.57;;
249;SDS011;109;19.806;-70.704;2023-03-23T03:35:35;15.70;;;3.67;;
249;SDS011;109;19.806;-70.704;2023-03-23T03:38:12;15.33;;;3.90;;
249;SDS011;109;19.806;-70.704;2023-03-23T03:40:39;14.63;;;3.83;;
249;SDS011;109;19.806;-70.704;2023-03-23T03:43:12;18.90;;;4.77;;
249;SDS011;109;19.806;-70.704;2023-03-23T03:45:38;10.83;;;3.70;;
249;SDS011;109;19.806;-70.704;2023-03-23T03:48:12;16.10;;;3.90;;
249;SDS011;109;19.806;-70.704;2023-03-23T03:50:38;10.73;;;3.93;;
249;SDS011;109;19.806;-70.704;2023-03-23T03:53:12;18.93;;;3.97;;
249;SDS011;109;19.806;-70.704;2023-03-23T03:55:38;15.03;;;3.37;;
249;SDS011;109;19.806;-70.704;2023-03-23T03:58:17;20.37;;;3.80;;
249;SDS011;109;19.806;-70.704;2023-03-23T04:01:02;30.00;;;4.60;;
249;SDS011;109;19.806;-70.704;2023-03-23T04:03:38;10.03;;;4.00;;
249;SDS011;109;19.806;-70.704;2023-03-23T04:06:17;15.47;;;3.63;;
249;SDS011;109;19.806;-70.704;2023-03-23T04:08:51;30.23;;;4.97;;
249;SDS011;109;19.806;-70.704;2023-03-23T04:11:18;26.63;;;4.67;;
249;SDS011;109;19.806;-70.704;2023-03-23T04:13:52;20.03;;;4.10;;
249;SDS011;109;19.806;-70.704;2023-03-23T04:16:20;14.07;;;4.50;;
249;SDS011;109;19.806;-70.704;2023-03-23T04:18:54;14.10;;;4.10;;
249;SDS011;109;19.806;-70.704;2023-03-23T04:21:24;19.30;;;4.00;;
249;SDS011;109;19.806;-70.704;2023-03-23T04:24:01;17.17;;;3.97;;
249;SDS011;109;19.806;-70.704;2023-03-23T04:26:29;13.20;;;4.17;;
249;SDS011;109;19.806;-70.704;2023-03-23T04:29:12;12.83;;;3.87;;
249;SDS011;109;19.806;-70.704;2023-03-23T04:32:03;18.73;;;3.63;;
249;SDS011;109;19.806;-70.704;2023-03-23T04:34:56;11.73;;;3.67;;
249;SDS011;109;19.806;-70.704;2023-03-23T04:37:38;10.20;;;3.17;;
249;SDS011;109;19.806;-70.704;2023-03-23T04:40:18;14.27;;;3.63;;
249;SDS011;109;19.806;-70.704;2023-03-23T04:43:02;14.97;;;3.83;;
249;SDS011;109;19.806;-70.704;2023-03-23T04:46:01;9.57;;;3.10;;
249;SDS011;109;19.806;-70.704;2023-03-23T04:48:34;18.70;;;3.17;;
249;SDS011;109;19.806;-70.704;2023-03-23T04:51:19;12.20;;;3.43;;
249;SDS011;109;19.806;-70.704;2023-03-23T04:53:53;16.80;;;3.77;;
249;SDS011;109;19.806;-70.704;2023-03-23T04:56:21;20.50;;;4.07;;
249;SDS011;109;19.806;-70.704;2023-03-23T04:58:58;14.57;;;3.00;;
249;SDS011;109;19.806;-70.704;2023-03-23T05:01:37;12.50;;;3.60;;
249;SDS011;109;19.806;-70.704;2023-03-23T05:04:16;11.50;;;3.50;;
249;SDS011;109;19.806;-70.704;2023-03-23T05:06:59;15.03;;;3.93;;
249;SDS011;109;19.806;-70.704;2023-03-23T05:09:37;13.23;;;3.70;;
249;SDS011;109;19.806;-70.704;2023-03-23T05:12:11;22.30;;;4.50;;
249;SDS011;109;19.806;-70.704;2023-03-23T05:15:03;10.40;;;3.30;;
249;SDS011;109;19.806;-70.704;2023-03-23T05:17:38;12.30;;;3.77;;
249;SDS011;109;19.806;-70.704;2023-03-23T05:20:13;13.23;;;3.10;;
249;SDS011;109;19.806;-70.704;2023-03-23T05:22:53;12.00;;;3.30;;
249;SDS011;109;19.806;-70.704;2023-03-23T05:25:33;10.37;;;3.27;;
249;SDS011;109;19.806;-70.704;2023-03-23T05:28:18;11.93;;;3.10;;
249;SDS011;109;19.806;-70.704;2023-03-23T05:31:04;13.43;;;3.03;;
249;SDS011;109;19.806;-70.704;2023-03-23T05:33:51;13.93;;;3.60;;
249;SDS011;109;19.806;-70.704;2023-03-23T05:36:30;16.10;;;2.93;;
249;SDS011;109;19.806;-70.704;2023-03-23T05:39:12;17.47;;;3.43;;
249;SDS011;109;19.806;-70.704;2023-03-23T05:42:23;19.27;;;3.57;;
249;SDS011;109;19.806;-70.704;2023-03-23T05:45:12;11.70;;;3.33;;
249;SDS011;109;19.806;-70.704;2023-03-23T05:47:49;10.90;;;3.23;;
249;SDS011;109;19.806;-70.704;2023-03-23T05:50:19;14.23;;;4.23;;
249;SDS011;109;19.806;-70.704;2023-03-23T05:52:52;11.13;;;3.50;;
249;SDS011;109;19.806;-70.704;2023-03-23T05:55:20;12.90;;;3.80;;
249;SDS011;109;19.806;-70.704;2023-03-23T05:58:04;14.50;;;3.57;;
249;SDS011;109;19.806;-70.704;2023-03-23T06:00:40;8.90;;;3.27;;
249;SDS011;109;19.806;-70.704;2023-03-23T06:03:23;9.00;;;3.00;;
249;SDS011;109;19.806;-70.704;2023-03-23T06:06:03;10.37;;;3.17;;
249;SDS011;109;19.806;-70.704;2023-03-23T06:09:02;11.33;;;3.80;;
249;SDS011;109;19.806;-70.704;2023-03-23T06:11:45;13.70;;;3.40;;
249;SDS011;109;19.806;-70.704;2023-03-23T06:14:49;9.23;;;3.30;;
249;SDS011;109;19.806;-70.704;2023-03-23T06:17:38;12.63;;;3.50;;
249;SDS011;109;19.806;-70.704;2023-03-23T06:20:11;19.23;;;4.10;;
249;SDS011;109;19.806;-70.704;2023-03-23T06:22:40;16.90;;;3.57;;
249;SDS011;109;19.806;-70.704;2023-03-23T06:25:24;15.33;;;3.83;;
249;SDS011;109;19.806;-70.704;2023-03-23T06:27:57;14.20;;;4.00;;
249;SDS011;109;19.806;-70.704;2023-03-23T06:30:25;12.53;;;3.20;;
249;SDS011;109;19.806;-70.704;2023-03-23T06:32:59;22.40;;;4.40;;
249;SDS011;109;19.806;-70.704;2023-03-23T06:36:02;14.60;;;4.00;;
249;SDS011;109;19.806;-70.704;2023-03-23T06:38:47;13.50;;;3.90;;
249;SDS011;109;19.806;-70.704;2023-03-23T06:41:30;18.60;;;4.50;;
249;SDS011;109;19.806;-70.704;2023-03-23T06:44:04;19.83;;;4.90;;
249;SDS011;109;19.806;-70.704;2023-03-23T06:46:32;16.43;;;4.13;;
249;SDS011;109;19.806;-70.704;2023-03-23T06:49:17;11.20;;;4.10;;
249;SDS011;109;19.806;-70.704;2023-03-23T06:52:11;6.13;;;3.53;;
249;SDS011;109;19.806;-70.704;2023-03-23T06:54:44;17.50;;;4.37;;
249;SDS011;109;19.806;-70.704;2023-03-23T06:57:12;15.40;;;4.10;;
249;SDS011;109;19.806;-70.704;2023-03-23T06:59:46;12.73;;;6.00;;
249;SDS011;109;19.806;-70.704;2023-03-23T07:02:13;20.97;;;5.90;;
249;SDS011;109;19.806;-70.704;2023-03-23T07:04:57;15.63;;;7.47;;
249;SDS011;109;19.806;-70.704;2023-03-23T07:07:31;15.20;;;6.07;;
249;SDS011;109;19.806;-70.704;2023-03-23T07:10:18;15.93;;;5.53;;
249;SDS011;109;19.806;-70.704;2023-03-23T07:12:52;14.90;;;4.27;;
249;SDS011;109;19.806;-70.704;2023-03-23T07:15:19;20.97;;;5.10;;
249;SDS011;109;19.806;-70.704;2023-03-23T07:17:55;18.30;;;4.73;;
249;SDS011;109;19.806;-70.704;2023-03-23T07:20:32;18.40;;;4.80;;
249;SDS011;109;19.806;-70.704;2023-03-23T07:23:05;16.10;;;4.90;;
249;SDS011;109;19.806;-70.704;2023-03-23T07:25:40;20.93;;;5.00;;
249;SDS011;109;19.806;-70.704;2023-03-23T07:28:17;15.60;;;4.23;;
249;SDS011;109;19.806;-70.704;2023-03-23T07:30:53;15.33;;;4.10;;
249;SDS011;109;19.806;-70.704;2023-03-23T07:33:39;11.30;;;3.50;;
249;SDS011;109;19.806;-70.704;2023-03-23T07:36:13;9.17;;;3.40;;
249;SDS011;109;19.806;-70.704;2023-03-23T07:38:40;14.47;;;3.90;;
249;SDS011;109;19.806;-70.704;2023-03-23T07:41:13;22.30;;;5.13;;
249;SDS011;109;19.806;-70.704;2023-03-23T07:43:41;10.33;;;3.60;;
249;SDS011;109;19.806;-70.704;2023-03-23T07:46:21;14.90;;;3.60;;
249;SDS011;109;19.806;-70.704;2023-03-23T07:49:00;16.83;;;4.63;;
249;SDS011;109;19.806;-70.704;2023-03-23T07:51:43;13.53;;;4.20;;
249;SDS011;109;19.806;-70.704;2023-03-23T07:54:24;9.60;;;3.47;;
249;SDS011;109;19.806;-70.704;2023-03-23T07:57:15;18.83;;;4.13;;
249;SDS011;109;19.806;-70.704;2023-03-23T07:59:51;15.77;;;3.80;;
249;SDS011;109;19.806;-70.704;2023-03-23T08:02:26;14.27;;;4.20;;
249;SDS011;109;19.806;-70.704;2023-03-23T08:05:16;15.63;;;4.13;;
249;SDS011;109;19.806;-70.704;2023-03-23T08:08:02;12.30;;;3.80;;
249;SDS011;109;19.806;-70.704;2023-03-23T08:10:36;9.60;;;4.00;;
249;SDS011;109;19.806;-70.704;2023-03-23T08:13:20;13.63;;;3.70;;
249;SDS011;109;19.806;-70.704;2023-03-23T08:16:19;10.43;;;3.57;;
249;SDS011;109;19.806;-70.704;2023-03-23T08:19:15;11.37;;;3.37;;
249;SDS011;109;19.806;-70.704;2023-03-23T08:22:20;9.60;;;3.60;;
249;SDS011;109;19.806;-70.704;2023-03-23T08:25:13;11.23;;;3.50;;
249;SDS011;109;19.806;-70.704;2023-03-23T08:28:13;12.43;;;3.83;;
249;SDS011;109;19.806;-70.704;2023-03-23T08:31:11;11.63;;;4.00;;
249;SDS011;109;19.806;-70.704;2023-03-23T08:34:17;10.70;;;4.10;;
249;SDS011;109;19.806;-70.704;2023-03-23T08:37:23;13.10;;;4.23;;
249;SDS011;109;19.806;-70.704;2023-03-23T08:40:22;15.90;;;4.30;;
249;SDS011;109;19.806;-70.704;2023-03-23T08:43:19;9.93;;;3.83;;
249;SDS011;109;19.806;-70.704;2023-03-23T08:45:58;19.40;;;4.50;;
249;SDS011;109;19.806;-70.704;2023-03-23T08:48:46;19.73;;;4.50;;
249;SDS011;109;19.806;-70.704;2023-03-23T08:51:38;12.27;;;4.63;;
249;SDS011;109;19.806;-70.704;2023-03-23T08:54:32;16.50;;;4.90;;
249;SDS011;109;19.806;-70.704;2023-03-23T08:57:24;15.57;;;4.63;;
249;SDS011;109;19.806;-70.704;2023-03-23T09:00:11;14.10;;;4.20;;
249;SDS011;109;19.806;-70.704;2023-03-23T09:03:06;8.53;;;3.70;;
249;SDS011;109;19.806;-70.704;2023-03-23T09:06:06;17.43;;;4.03;;
249;SDS011;109;19.806;-70.704;2023-03-23T09:08:44;15.50;;;4.07;;
249;SDS011;109;19.806;-70.704;2023-03-23T09:11:18;9.50;;;3.50;;
249;SDS011;109;19.806;-70.704;2023-03-23T09:13:45;10.87;;;3.20;;
249;SDS011;109;19.806;-70.704;2023-03-23T09:16:18;13.30;;;3.37;;
249;SDS011;109;19.806;-70.704;2023-03-23T09:18:44;12.90;;;3.43;;
249;SDS011;109;19.806;-70.704;2023-03-23T09:21:18;14.63;;;4.40;;
249;SDS011;109;19.806;-70.704;2023-03-23T09:23:46;10.20;;;3.67;;
249;SDS011;109;19.806;-70.704;2023-03-23T09:26:25;14.43;;;3.80;;
249;SDS011;109;19.806;-70.704;2023-03-23T09:28:52;13.13;;;3.93;;
249;SDS011;109;19.806;-70.704;2023-03-23T09:31:26;12.67;;;3.37;;
249;SDS011;109;19.806;-70.704;2023-03-23T09:34:16;11.43;;;3.30;;
249;SDS011;109;19.806;-70.704;2023-03-23T09:36:50;13.33;;;3.50;;
249;SDS011;109;19.806;-70.704;2023-03-23T09:39:17;26.23;;;5.10;;
249;SDS011;109;19.806;-70.704;2023-03-23T09:41:55;15.10;;;3.30;;
249;SDS011;109;19.806;-70.704;2023-03-23T09:50:25;12.97;;;3.23;;
249;SDS011;109;19.806;-70.704;2023-03-23T09:53:15;10.47;;;3.20;;
249;SDS011;109;19.806;-70.704;2023-03-23T09:55:55;10.43;;;3.27;;
249;SDS011;109;19.806;-70.704;2023-03-23T09:58:31;20.13;;;3.87;;
249;SDS011;109;19.806;-70.704;2023-03-23T10:01:14;13.90;;;3.40;;
249;SDS011;109;19.806;-70.704;2023-03-23T10:07:12;9.40;;;3.27;;
249;SDS011;109;19.806;-70.704;2023-03-23T10:09:51;11.43;;;3.43;;
249;SDS011;109;19.806;-70.704;2023-03-23T10:12:33;7.53;;;3.20;;
249;SDS011;109;19.806;-70.704;2023-03-23T10:15:18;10.23;;;2.90;;
249;SDS011;109;19.806;-70.704;2023-03-23T10:18:08;12.63;;;3.50;;
249;SDS011;109;19.806;-70.704;2023-03-23T10:29:17;8.17;;;3.43;;
249;SDS011;109;19.806;-70.704;2023-03-23T10:32:18;10.97;;;3.47;;
249;SDS011;109;19.806;-70.704;2023-03-23T10:34:56;9.60;;;3.17;;
249;SDS011;109;19.806;-70.704;2023-03-23T10:37:37;14.80;;;3.53;;
249;SDS011;109;19.806;-70.704;2023-03-23T10:40:12;14.17;;;3.40;;
249;SDS011;109;19.806;-70.704;2023-03-23T10:42:42;21.20;;;4.10;;
249;SDS011;109;19.806;-70.704;2023-03-23T10:45:16;14.73;;;3.90;;
249;SDS011;109;19.806;-70.704;2023-03-23T10:47:55;8.73;;;3.60;;
249;SDS011;109;19.806;-70.704;2023-03-23T10:50:31;11.50;;;3.23;;
249;SDS011;109;19.806;-70.704;2023-03-23T10:53:01;39.17;;;7.00;;
249;SDS011;109;19.806;-70.704;2023-03-23T10:55:38;7.73;;;3.17;;
249;SDS011;109;19.806;-70.704;2023-03-23T10:58:09;14.17;;;3.80;;
249;SDS011;109;19.806;-70.704;2023-03-23T11:00:48;16.27;;;3.70;;
249;SDS011;109;19.806;-70.704;2023-03-23T11:05:47;10.13;;;3.53;;
249;SDS011;109;19.806;-70.704;2023-03-23T11:08:30;13.40;;;3.80;;
249;SDS011;109;19.806;-70.704;2023-03-23T11:11:09;13.13;;;3.83;;
249;SDS011;109;19.806;-70.704;2023-03-23T11:13:40;9.03;;;3.03;;
249;SDS011;109;19.806;-70.704;2023-03-23T11:16:33;10.20;;;3.40;;
249;SDS011;109;19.806;-70.704;2023-03-23T11:19:00;9.80;;;3.20;;
249;SDS011;109;19.806;-70.704;2023-03-23T11:21:47;16.77;;;3.73;;
249;SDS011;109;19.806;-70.704;2023-03-23T11:24:15;11.50;;;3.40;;
249;SDS011;109;19.806;-70.704;2023-03-23T11:26:43;12.33;;;3.23;;
249;SDS011;109;19.806;-70.704;2023-03-23T11:31:47;11.23;;;3.67;;
249;SDS011;109;19.806;-70.704;2023-03-23T11:34:21;13.00;;;3.53;;
249;SDS011;109;19.806;-70.704;2023-03-23T11:36:51;19.40;;;3.67;;
249;SDS011;109;19.806;-70.704;2023-03-23T11:39:26;13.53;;;4.40;;
249;SDS011;109;19.806;-70.704;2023-03-23T11:41:57;9.60;;;3.63;;
249;SDS011;109;19.806;-70.704;2023-03-23T11:44:34;10.97;;;3.67;;
249;SDS011;109;19.806;-70.704;2023-03-23T11:47:13;13.80;;;4.13;;
249;SDS011;109;19.806;-70.704;2023-03-23T11:49:57;23.67;;;4.23;;
249;SDS011;109;19.806;-70.704;2023-03-23T11:52:45;15.97;;;3.80;;
249;SDS011;109;19.806;-70.704;2023-03-23T11:55:50;12.50;;;3.57;;
249;SDS011;109;19.806;-70.704;2023-03-23T11:58:21;9.90;;;3.30;;
249;SDS011;109;19.806;-70.704;2023-03-23T12:00:51;9.70;;;3.20;;
249;SDS011;109;19.806;-70.704;2023-03-23T12:03:25;17.30;;;3.77;;
249;SDS011;109;19.806;-70.704;2023-03-23T12:06:03;9.43;;;3.03;;
249;SDS011;109;19.806;-70.704;2023-03-23T12:14:06;7.40;;;2.67;;
249;SDS011;109;19.806;-70.704;2023-03-23T12:17:00;15.30;;;3.40;;
249;SDS011;109;19.806;-70.704;2023-03-23T12:25:36;15.27;;;3.50;;
249;SDS011;109;19.806;-70.704;2023-03-23T12:41:33;11.83;;;3.90;;
249;SDS011;109;19.806;-70.704;2023-03-23T12:44:06;9.77;;;3.70;;
249;SDS011;109;19.806;-70.704;2023-03-23T12:54:49;13.00;;;3.93;;
249;SDS011;109;19.806;-70.704;2023-03-23T12:57:32;17.40;;;3.70;;
249;SDS011;109;19.806;-70.704;2023-03-23T13:00:05;12.17;;;3.30;;
249;SDS011;109;19.806;-70.704;2023-03-23T13:02:41;12.97;;;3.43;;
249;SDS011;109;19.806;-70.704;2023-03-23T13:08:00;15.53;;;3.97;;
249;SDS011;109;19.806;-70.704;2023-03-23T13:10:38;16.10;;;3.20;;
249;SDS011;109;19.806;-70.704;2023-03-23T13:13:11;18.77;;;3.90;;
249;SDS011;109;19.806;-70.704;2023-03-23T13:15:56;22.97;;;5.80;;
249;SDS011;109;19.806;-70.704;2023-03-23T13:21:32;13.83;;;3.33;;
249;SDS011;109;19.806;-70.704;2023-03-23T13:24:05;17.47;;;3.23;;
249;SDS011;109;19.806;-70.704;2023-03-23T13:26:39;17.17;;;3.50;;
249;SDS011;109;19.806;-70.704;2023-03-23T13:31:44;12.40;;;3.10;;
249;SDS011;109;19.806;-70.704;2023-03-23T13:34:17;11.47;;;3.23;;
249;SDS011;109;19.806;-70.704;2023-03-23T13:36:59;8.63;;;3.10;;
249;SDS011;109;19.806;-70.704;2023-03-23T13:39:32;10.13;;;3.17;;
249;SDS011;109;19.806;-70.704;2023-03-23T13:52:25;18.33;;;3.90;;
249;SDS011;109;19.806;-70.704;2023-03-23T14:03:17;11.73;;;3.50;;
249;SDS011;109;19.806;-70.704;2023-03-23T14:06:01;39.57;;;5.50;;
249;SDS011;109;19.806;-70.704;2023-03-23T14:08:48;35.97;;;5.03;;
249;SDS011;109;19.806;-70.704;2023-03-23T14:16:53;23.50;;;4.90;;
249;SDS011;109;19.806;-70.704;2023-03-23T14:19:30;25.93;;;4.17;;
249;SDS011;109;19.806;-70.704;2023-03-23T14:21:59;20.83;;;3.57;;
249;SDS011;109;19.806;-70.704;2023-03-23T14:24:28;24.63;;;4.57;;
249;SDS011;109;19.806;-70.704;2023-03-23T14:27:08;29.07;;;5.67;;
249;SDS011;109;19.806;-70.704;2023-03-23T14:29:42;30.77;;;7.03;;
249;SDS011;109;19.806;-70.704;2023-03-23T14:32:17;28.70;;;4.07;;
249;SDS011;109;19.806;-70.704;2023-03-23T14:34:50;18.50;;;4.00;;
249;SDS011;109;19.806;-70.704;2023-03-23T14:37:17;25.53;;;5.60;;
249;SDS011;109;19.806;-70.704;2023-03-23T14:39:44;26.40;;;6.17;;
249;SDS011;109;19.806;-70.704;2023-03-23T14:42:13;27.13;;;5.87;;
249;SDS011;109;19.806;-70.704;2023-03-23T14:44:43;18.73;;;4.50;;
249;SDS011;109;19.806;-70.704;2023-03-23T14:47:19;39.47;;;5.50;;
249;SDS011;109;19.806;-70.704;2023-03-23T14:49:46;18.77;;;4.27;;
249;SDS011;109;19.806;-70.704;2023-03-23T14:52:18;20.50;;;3.83;;
249;SDS011;109;19.806;-70.704;2023-03-23T14:54:47;31.97;;;4.53;;
249;SDS011;109;19.806;-70.704;2023-03-23T14:57:26;24.83;;;4.87;;
249;SDS011;109;19.806;-70.704;2023-03-23T14:59:54;16.63;;;4.53;;
249;SDS011;109;19.806;-70.704;2023-03-23T15:02:26;19.03;;;3.77;;
249;SDS011;109;19.806;-70.704;2023-03-23T15:07:38;24.50;;;4.80;;
249;SDS011;109;19.806;-70.704;2023-03-23T15:10:07;25.67;;;4.57;;
249;SDS011;109;19.806;-70.704;2023-03-23T15:12:36;22.33;;;3.90;;
249;SDS011;109;19.806;-70.704;2023-03-23T15:15:04;22.20;;;4.20;;
249;SDS011;109;19.806;-70.704;2023-03-23T15:17:36;26.93;;;3.83;;
249;SDS011;109;19.806;-70.704;2023-03-23T15:20:10;21.13;;;5.77;;
249;SDS011;109;19.806;-70.704;2023-03-23T15:23:05;21.60;;;3.80;;
249;SDS011;109;19.806;-70.704;2023-03-23T15:25:33;19.73;;;3.57;;
249;SDS011;109;19.806;-70.704;2023-03-23T15:30:54;24.20;;;4.83;;
249;SDS011;109;19.806;-70.704;2023-03-23T15:33:26;23.23;;;4.10;;
249;SDS011;109;19.806;-70.704;2023-03-23T15:35:59;17.27;;;4.50;;
249;SDS011;109;19.806;-70.704;2023-03-23T15:38:32;24.27;;;4.63;;
249;SDS011;109;19.806;-70.704;2023-03-23T15:41:01;33.60;;;4.13;;
249;SDS011;109;19.806;-70.704;2023-03-23T15:43:33;25.00;;;5.50;;
249;SDS011;109;19.806;-70.704;2023-03-23T15:48:50;19.60;;;3.83;;
249;SDS011;109;19.806;-70.704;2023-03-23T15:51:17;15.97;;;4.03;;
249;SDS011;109;19.806;-70.704;2023-03-23T15:53:45;30.03;;;6.43;;
249;SDS011;109;19.806;-70.704;2023-03-23T15:56:12;36.53;;;6.33;;
249;SDS011;109;19.806;-70.704;2023-03-23T15:58:39;20.90;;;4.10;;
249;SDS011;109;19.806;-70.704;2023-03-23T16:01:09;30.77;;;5.10;;
249;SDS011;109;19.806;-70.704;2023-03-23T16:03:39;37.20;;;5.90;;
249;SDS011;109;19.806;-70.704;2023-03-23T16:06:12;63.83;;;6.83;;
249;SDS011;109;19.806;-70.704;2023-03-23T16:08:41;84.80;;;10.87;;
249;SDS011;109;19.806;-70.704;2023-03-23T16:11:11;78.07;;;9.40;;
249;SDS011;109;19.806;-70.704;2023-03-23T16:13:42;72.93;;;9.60;;
249;SDS011;109;19.806;-70.704;2023-03-23T16:16:13;31.23;;;5.17;;
249;SDS011;109;19.806;-70.704;2023-03-23T16:18:47;38.87;;;5.43;;
249;SDS011;109;19.806;-70.704;2023-03-23T16:21:13;50.83;;;12.37;;
249;SDS011;109;19.806;-70.704;2023-03-23T16:23:40;55.87;;;5.03;;
249;SDS011;109;19.806;-70.704;2023-03-23T16:26:09;58.57;;;7.90;;
249;SDS011;109;19.806;-70.704;2023-03-23T16:28:35;41.30;;;5.77;;
249;SDS011;109;19.806;-70.704;2023-03-23T16:31:02;30.33;;;5.67;;
249;SDS011;109;19.806;-70.704;2023-03-23T16:33:28;43.73;;;7.00;;
249;SDS011;109;19.806;-70.704;2023-03-23T16:35:55;47.30;;;6.63;;
249;SDS011;109;19.806;-70.704;2023-03-23T16:38:23;24.37;;;4.33;;
249;SDS011;109;19.806;-70.704;2023-03-23T16:40:50;43.83;;;7.17;;
249;SDS011;109;19.806;-70.704;2023-03-23T16:43:16;45.17;;;7.27;;
249;SDS011;109;19.806;-70.704;2023-03-23T16:45:43;41.10;;;5.40;;
249;SDS011;109;19.806;-70.704;2023-03-23T16:48:12;36.27;;;6.63;;
249;SDS011;109;19.806;-70.704;2023-03-23T16:50:40;18.40;;;4.80;;
249;SDS011;109;19.806;-70.704;2023-03-23T16:53:08;39.53;;;5.50;;
249;SDS011;109;19.806;-70.704;2023-03-23T16:55:35;53.10;;;8.40;;
249;SDS011;109;19.806;-70.704;2023-03-23T16:58:03;43.23;;;5.97;;
249;SDS011;109;19.806;-70.704;2023-03-23T17:00:30;36.47;;;6.37;;
249;SDS011;109;19.806;-70.704;2023-03-23T17:02:57;68.23;;;9.30;;
249;SDS011;109;19.806;-70.704;2023-03-23T17:05:25;49.83;;;7.43;;
249;SDS011;109;19.806;-70.704;2023-03-23T17:07:53;41.33;;;6.10;;
249;SDS011;109;19.806;-70.704;2023-03-23T17:10:21;39.67;;;5.30;;
249;SDS011;109;19.806;-70.704;2023-03-23T17:12:52;35.53;;;6.30;;
249;SDS011;109;19.806;-70.704;2023-03-23T17:15:19;24.73;;;5.10;;
249;SDS011;109;19.806;-70.704;2023-03-23T17:17:46;40.73;;;6.07;;
249;SDS011;109;19.806;-70.704;2023-03-23T17:20:12;56.90;;;8.13;;
249;SDS011;109;19.806;-70.704;2023-03-23T17:22:39;28.90;;;4.33;;
249;SDS011;109;19.806;-70.704;2023-03-23T17:25:06;47.07;;;7.83;;
249;SDS011;109;19.806;-70.704;2023-03-23T17:27:34;41.30;;;6.13;;
249;SDS011;109;19.806;-70.704;2023-03-23T17:30:03;40.93;;;7.47;;
249;SDS011;109;19.806;-70.704;2023-03-23T17:32:31;38.47;;;6.40;;
249;SDS011;109;19.806;-70.704;2023-03-23T17:34:58;46.10;;;7.77;;
249;SDS011;109;19.806;-70.704;2023-03-23T17:37:26;30.83;;;5.47;;
249;SDS011;109;19.806;-70.704;2023-03-23T17:39:52;30.90;;;4.57;;
249;SDS011;109;19.806;-70.704;2023-03-23T17:42:18;37.00;;;6.00;;
249;SDS011;109;19.806;-70.704;2023-03-23T17:44:45;36.77;;;5.60;;
249;SDS011;109;19.806;-70.704;2023-03-23T17:47:12;49.83;;;6.37;;
249;SDS011;109;19.806;-70.704;2023-03-23T17:49:38;37.17;;;6.60;;
249;SDS011;109;19.806;-70.704;2023-03-23T17:52:05;30.67;;;5.50;;
249;SDS011;109;19.806;-70.704;2023-03-23T17:54:31;38.60;;;5.63;;
249;SDS011;109;19.806;-70.704;2023-03-23T17:56:58;69.43;;;9.43;;